createdAt,value
2018-11-03T00:00:14.225Z,101483.69
2018-11-03T00:05:17.705Z,101480.89
2018-11-03T00:10:21.250Z,101486.75
2018-11-03T00:15:24.707Z,101488.95
2018-11-03T00:20:28.163Z,101494.64
2018-11-03T00:25:31.630Z,101492.81
2018-11-03T00:30:35.119Z,101484.85
2018-11-03T00:35:38.612Z,101488.47
2018-11-03T00:40:42.098Z,101496.95
2018-11-03T00:45:45.559Z,101490.61
2018-11-03T00:50:49.012Z,101482.55
2018-11-03T00:55:52.447Z,101478.41
2018-11-03T01:05:58.384Z,101472.16
2018-11-03T01:11:01.902Z,101462.75
2018-11-03T01:16:05.726Z,101463.72
2018-11-03T01:21:09.462Z,101472.65
2018-11-03T01:26:12.917Z,101473.20
2018-11-03T01:31:16.348Z,101470.52
2018-11-03T01:36:19.906Z,101472.75
2018-11-03T01:41:23.352Z,101471.86
2018-11-03T01:46:26.796Z,101477.34
2018-11-03T01:51:30.294Z,101476.48
2018-11-03T01:56:33.764Z,101476.00
2018-11-03T02:01:37.213Z,101477.44
2018-11-03T02:06:40.723Z,101472.55
2018-11-03T02:11:44.215Z,101484.27
2018-11-03T02:16:47.688Z,101491.37
2018-11-03T02:21:51.183Z,101499.92
2018-11-03T02:26:55.000Z,101496.95
2018-11-03T02:31:58.457Z,101503.77
2018-11-03T02:37:01.893Z,101498.88
2018-11-03T02:42:05.484Z,101511.05
2018-11-03T02:47:08.962Z,101504.91
2018-11-03T02:52:12.465Z,101505.29
2018-11-03T02:57:15.918Z,101508.18
2018-11-03T03:02:19.364Z,101515.87
2018-11-03T03:07:22.802Z,101515.11
2018-11-03T03:12:26.290Z,101511.63
2018-11-03T03:17:29.735Z,101517.97
2018-11-03T03:22:33.203Z,101525.37
2018-11-03T03:27:36.681Z,101527.67
2018-11-03T03:32:40.284Z,101527.20
2018-11-03T03:37:43.725Z,101541.59
2018-11-03T03:42:47.161Z,101544.28
2018-11-03T03:47:50.622Z,101552.52
2018-11-03T03:52:54.067Z,101568.64
2018-11-03T03:57:57.507Z,101562.87
2018-11-03T04:03:00.949Z,101565.77
2018-11-03T04:08:04.420Z,101573.73
2018-11-03T04:13:07.866Z,101569.52
2018-11-03T04:18:11.319Z,101561.08
2018-11-03T04:23:14.773Z,101561.84
2018-11-03T04:28:18.262Z,101563.28
2018-11-03T04:33:21.734Z,101566.92
2018-11-03T04:38:25.182Z,101565.75
2018-11-03T04:43:28.614Z,101571.12
2018-11-03T04:48:32.138Z,101569.20
2018-11-03T04:53:35.578Z,101573.91
2018-11-03T04:58:39.033Z,101581.97
2018-11-03T05:03:42.494Z,101587.92
2018-11-03T05:08:46.123Z,101597.88
2018-11-03T05:13:49.577Z,101601.04
2018-11-03T05:18:53.038Z,101602.86
2018-11-03T05:23:56.511Z,101607.44
2018-11-03T05:28:59.991Z,101601.30
2018-11-03T05:34:03.447Z,101598.52
2018-11-03T05:39:09.135Z,101597.66
2018-11-03T05:44:13.041Z,101605.81
2018-11-03T05:49:16.482Z,101615.22
2018-11-03T05:54:20.033Z,101623.85
2018-11-03T05:59:23.405Z,101619.82
2018-11-03T06:04:26.872Z,101629.22
2018-11-03T06:09:30.323Z,101622.61
2018-11-03T06:14:33.771Z,101627.50
2018-11-03T06:19:37.233Z,101636.13
2018-11-03T06:24:40.830Z,101646.08
2018-11-03T06:29:44.277Z,101643.97
2018-11-03T06:34:47.725Z,101647.80
2018-11-03T06:39:51.275Z,101650.48
2018-11-03T06:44:54.735Z,101656.76
2018-11-03T06:49:58.214Z,101648.70
2018-11-03T06:55:01.684Z,101654.94
2018-11-03T07:00:07.834Z,101657.05
2018-11-03T07:05:11.382Z,101659.61
2018-11-03T07:10:14.776Z,101659.52
2018-11-03T07:15:18.255Z,101662.94
2018-11-03T07:20:21.732Z,101661.69
2018-11-03T07:25:25.182Z,101664.85
2018-11-03T07:30:28.644Z,101667.87
2018-11-03T07:35:32.080Z,101668.16
2018-11-03T07:40:35.918Z,101671.94
2018-11-03T07:45:39.421Z,101674.77
2018-11-03T07:50:42.870Z,101678.13
2018-11-03T07:55:46.317Z,101677.16
2018-11-03T08:00:49.839Z,101676.59
2018-11-03T08:05:53.292Z,101682.68
2018-11-03T08:10:56.784Z,101678.02
2018-11-03T08:16:00.249Z,101681.73
2018-11-03T08:21:03.758Z,101686.27
2018-11-03T08:26:07.226Z,101682.34
2018-11-03T08:31:10.694Z,101690.30
2018-11-03T08:36:14.213Z,101694.27
2018-11-03T08:41:17.712Z,101692.22
2018-11-03T08:46:21.221Z,101703.48
2018-11-03T08:51:24.694Z,101694.29
2018-11-03T08:56:28.161Z,101688.64
2018-11-03T09:01:31.607Z,101668.55
2018-11-03T09:06:35.301Z,101666.73
2018-11-03T09:11:38.789Z,101664.42
2018-11-03T09:16:42.274Z,101664.22
2018-11-03T09:21:45.820Z,101666.97
2018-11-03T09:26:49.231Z,101666.41
2018-11-03T09:31:52.817Z,101674.81
2018-11-03T09:36:56.186Z,101674.03
2018-11-03T09:41:59.662Z,101668.20
2018-11-03T09:47:03.127Z,101664.14
2018-11-03T09:52:06.569Z,101669.21
2018-11-03T09:57:10.019Z,101672.05
2018-11-03T10:02:13.512Z,101669.56
2018-11-03T10:07:16.994Z,101668.08
2018-11-03T10:12:20.490Z,101667.72
2018-11-03T10:17:24.020Z,101660.05
2018-11-03T10:22:27.629Z,101655.70
2018-11-03T10:27:30.950Z,101650.34
2018-11-03T10:32:34.403Z,101642.05
2018-11-03T10:37:37.982Z,101644.73
2018-11-03T10:42:41.742Z,101652.75
2018-11-03T10:47:45.568Z,101653.14
2018-11-03T10:52:49.110Z,101653.17
2018-11-03T10:57:52.567Z,101652.01
2018-11-03T11:03:01.416Z,101649.23
2018-11-03T11:08:10.666Z,101644.73
2018-11-03T11:13:16.885Z,101641.91
2018-11-03T11:18:20.394Z,101643.30
2018-11-03T11:23:23.907Z,101621.78
2018-11-03T11:28:27.346Z,101619.51
2018-11-03T11:33:30.847Z,101615.96
2018-11-03T11:44:02.318Z,101618.88
2018-11-03T11:49:05.908Z,101620.98
2018-11-03T11:54:09.358Z,101607.91
2018-11-03T11:59:12.823Z,101609.86
2018-11-03T12:04:16.278Z,101596.59
2018-11-03T12:09:19.730Z,101588.83
2018-11-03T12:14:23.204Z,101582.59
2018-11-03T12:47:43.474Z,101580.97
2018-11-03T12:52:47.176Z,101564.09
2018-11-03T12:57:50.688Z,101570.61
2018-11-03T13:02:54.171Z,101562.78
2018-11-03T13:07:57.648Z,101559.85
2018-11-03T13:13:01.111Z,101560.91
2018-11-03T13:18:04.653Z,101557.17
2018-11-03T13:23:08.103Z,101558.31
2018-11-03T13:28:11.538Z,101558.55
2018-11-03T13:33:14.992Z,101553.08
2018-11-03T13:38:18.482Z,101559.11
2018-11-03T13:43:21.998Z,101557.12
2018-11-03T13:48:25.486Z,101541.02
2018-11-03T13:53:29.015Z,101536.52
2018-11-03T13:58:32.706Z,101532.19
2018-11-03T14:03:36.179Z,101531.84
2018-11-03T14:08:39.626Z,101522.52
2018-11-03T14:13:43.116Z,101522.43
2018-11-03T14:18:46.574Z,101536.44
2018-11-03T14:23:50.079Z,101532.70
2018-11-03T14:28:53.691Z,101537.60
2018-11-03T14:33:57.150Z,101536.16
2018-11-03T14:39:00.694Z,101525.89
2018-11-03T14:44:04.149Z,101521.00
2018-11-03T14:49:08.154Z,101525.70
2018-11-03T14:54:11.683Z,101522.53
2018-11-03T14:59:15.259Z,101521.52
2018-11-03T15:04:18.727Z,101513.24
2018-11-03T15:09:22.201Z,101513.79
2018-11-03T15:14:25.980Z,101508.25
2018-11-03T15:19:29.356Z,101511.30
2018-11-03T15:24:32.854Z,101513.51
2018-11-03T15:29:36.301Z,101508.62
2018-11-03T15:34:39.740Z,101505.34
2018-11-03T15:39:43.272Z,101494.27
2018-11-03T15:44:47.157Z,101501.04
2018-11-03T15:49:50.640Z,101494.42
2018-11-03T15:54:54.173Z,101497.48
2018-11-03T15:59:57.614Z,101501.14
2018-11-03T16:05:01.148Z,101503.45
2018-11-03T16:10:05.856Z,101494.91
2018-11-03T16:15:10.673Z,101496.73
2018-11-03T16:20:14.218Z,101498.94
2018-11-03T16:25:17.710Z,101494.80
2018-11-03T16:30:21.226Z,101489.62
2018-11-03T16:35:24.722Z,101497.59
2018-11-03T16:40:28.162Z,101488.21
2018-11-03T16:45:31.838Z,101491.28
2018-11-03T16:50:35.291Z,101485.91
2018-11-03T16:55:38.884Z,101488.41
2018-11-03T17:00:42.315Z,101487.34
2018-11-03T17:05:45.768Z,101476.66
2018-11-03T17:10:49.218Z,101471.52
2018-11-03T17:15:52.678Z,101459.84
2018-11-03T17:20:56.173Z,101454.02
2018-11-03T17:25:59.610Z,101444.72
2018-11-03T17:31:03.088Z,101438.38
2018-11-03T17:36:06.626Z,101435.78
2018-11-03T17:41:10.027Z,101433.50
2018-11-03T17:46:13.472Z,101434.30
2018-11-03T17:51:16.910Z,101438.08
2018-11-03T17:56:20.433Z,101434.70
2018-11-03T18:01:23.982Z,101430.49
2018-11-03T18:06:27.455Z,101430.57
2018-11-03T18:11:30.907Z,101432.14
2018-11-03T18:16:34.430Z,101431.28
2018-11-03T18:21:38.542Z,101433.76
2018-11-03T18:26:42.097Z,101433.09
2018-11-03T18:31:45.551Z,101429.47
2018-11-03T18:36:49.126Z,101432.36
2018-11-03T18:41:52.688Z,101426.70
2018-11-03T18:46:56.164Z,101427.86
2018-11-03T18:51:59.640Z,101424.95
2018-11-03T18:57:03.102Z,101421.99
2018-11-03T19:02:06.732Z,101416.20
2018-11-03T19:07:10.191Z,101412.23
2018-11-03T19:12:13.670Z,101410.30
2018-11-03T19:17:17.177Z,101404.22
2018-11-03T19:22:20.618Z,101403.44
2018-11-03T19:27:24.055Z,101397.44
2018-11-03T19:32:27.530Z,101394.86
2018-11-03T19:37:30.965Z,101381.40
2018-11-03T19:42:35.310Z,101375.86
2018-11-03T19:47:38.749Z,101369.91
2018-11-03T19:52:42.221Z,101375.69
2018-11-03T19:57:45.691Z,101373.52
2018-11-03T20:02:49.235Z,101366.88
2018-11-03T20:07:52.838Z,101370.77
2018-11-03T20:12:59.390Z,101370.58
2018-11-03T20:18:02.976Z,101367.47
2018-11-03T20:23:06.424Z,101364.41
2018-11-03T20:28:09.887Z,101358.91
2018-11-03T20:33:13.430Z,101350.58
2018-11-03T20:38:16.975Z,101347.13
2018-11-03T20:43:20.419Z,101340.22
2018-11-03T20:48:23.882Z,101328.97
2018-11-03T20:53:27.432Z,101327.73
2018-11-03T20:58:30.883Z,101323.30
2018-11-03T21:03:34.372Z,101315.64
2018-11-03T21:08:37.874Z,101308.31
2018-11-03T21:13:41.356Z,101307.08
2018-11-03T21:18:44.890Z,101301.33
2018-11-03T21:23:48.371Z,101291.66
2018-11-03T21:28:51.793Z,101293.38
2018-11-03T21:33:55.306Z,101280.81
2018-11-03T21:38:58.761Z,101271.19
2018-11-03T21:44:02.241Z,101263.23
2018-11-03T21:49:05.880Z,101255.53
2018-11-03T21:54:09.399Z,101252.36
2018-11-03T21:59:12.857Z,101251.19
2018-11-03T22:04:16.333Z,101247.53
2018-11-03T22:09:20.553Z,101244.66
2018-11-03T22:14:24.028Z,101234.61
2018-11-03T22:19:27.518Z,101231.73
2018-11-03T22:24:30.962Z,101225.05
2018-11-03T22:29:34.417Z,101228.63
2018-11-03T22:34:37.885Z,101222.02
2018-11-03T22:39:41.350Z,101217.50
2018-11-03T22:44:44.784Z,101189.65
2018-11-03T22:49:48.223Z,101184.53
2018-11-03T22:54:51.685Z,101174.38
2018-11-03T22:59:55.116Z,101172.28
2018-11-03T23:04:58.556Z,101167.99
2018-11-03T23:10:02.859Z,101163.73
2018-11-03T23:15:07.810Z,101153.51
2018-11-03T23:20:12.868Z,101145.22
2018-11-03T23:25:16.375Z,101139.54
2018-11-03T23:30:20.118Z,101127.48
2018-11-03T23:35:23.702Z,101116.47
2018-11-03T23:40:27.388Z,101109.64
2018-11-03T23:45:31.009Z,101102.69
2018-11-03T23:50:34.761Z,101098.14
2018-11-03T23:55:38.238Z,101094.48
